sensor_id;sensor_type;location;lat;lon;timestamp;temperature;humidity
22130;DHT22;11231;50.746;4.272;2023-05-07T00:00:03;16.60;99.90
22130;DHT22;11231;50.746;4.272;2023-05-07T00:02:34;16.50;99.90
22130;DHT22;11231;50.746;4.272;2023-05-07T00:05:00;16.50;99.90
22130;DHT22;11231;50.746;4.272;2023-05-07T00:07:26;16.50;99.90
22130;DHT22;11231;50.746;4.272;2023-05-07T00:09:51;16.60;99.90
22130;DHT22;11231;50.746;4.272;2023-05-07T00:12:17;16.60;99.90
22130;DHT22;11231;50.746;4.272;2023-05-07T00:14:43;16.60;99.90
22130;DHT22;11231;50.746;4.272;2023-05-07T00:17:09;16.60;99.90
22130;DHT22;11231;50.746;4.272;2023-05-07T00:19:34;16.60;99.90
22130;DHT22;11231;50.746;4.272;2023-05-07T00:22:00;16.70;99.90
22130;DHT22;11231;50.746;4.272;2023-05-07T00:24:26;16.70;99.90
22130;DHT22;11231;50.746;4.272;2023-05-07T00:26:52;16.80;99.90
22130;DHT22;11231;50.746;4.272;2023-05-07T00:29:18;16.70;99.90
22130;DHT22;11231;50.746;4.272;2023-05-07T00:31:44;16.80;99.90
22130;DHT22;11231;50.746;4.272;2023-05-07T00:34:09;16.80;99.90
22130;DHT22;11231;50.746;4.272;2023-05-07T00:36:35;16.80;99.90
22130;DHT22;11231;50.746;4.272;2023-05-07T00:39:01;16.90;99.90
22130;DHT22;11231;50.746;4.272;2023-05-07T00:41:29;17.00;99.90
22130;DHT22;11231;50.746;4.272;2023-05-07T00:43:58;17.00;99.90
22130;DHT22;11231;50.746;4.272;2023-05-07T00:46:24;17.00;99.90
22130;DHT22;11231;50.746;4.272;2023-05-07T00:48:51;17.00;99.90
22130;DHT22;11231;50.746;4.272;2023-05-07T00:51:17;17.00;99.90
22130;DHT22;11231;50.746;4.272;2023-05-07T00:53:44;17.00;99.90
22130;DHT22;11231;50.746;4.272;2023-05-07T00:56:10;17.00;99.90
22130;DHT22;11231;50.746;4.272;2023-05-07T00:58:37;16.90;99.90
22130;DHT22;11231;50.746;4.272;2023-05-07T01:01:04;16.80;99.90
22130;DHT22;11231;50.746;4.272;2023-05-07T01:03:30;16.60;99.90
22130;DHT22;11231;50.746;4.272;2023-05-07T01:05:57;16.50;99.90
22130;DHT22;11231;50.746;4.272;2023-05-07T01:08:24;16.40;99.90
22130;DHT22;11231;50.746;4.272;2023-05-07T01:10:52;16.40;99.90
22130;DHT22;11231;50.746;4.272;2023-05-07T01:13:19;16.40;99.90
22130;DHT22;11231;50.746;4.272;2023-05-07T01:15:46;16.50;99.90
22130;DHT22;11231;50.746;4.272;2023-05-07T01:18:12;16.50;99.90
22130;DHT22;11231;50.746;4.272;2023-05-07T01:20:38;16.50;99.90
22130;DHT22;11231;50.746;4.272;2023-05-07T01:23:06;16.50;99.90
22130;DHT22;11231;50.746;4.272;2023-05-07T01:25:32;16.60;99.90
22130;DHT22;11231;50.746;4.272;2023-05-07T01:28:00;16.60;99.90
22130;DHT22;11231;50.746;4.272;2023-05-07T01:30:29;16.70;99.90
22130;DHT22;11231;50.746;4.272;2023-05-07T01:33:03;16.60;99.90
22130;DHT22;11231;50.746;4.272;2023-05-07T01:35:37;16.60;99.90
22130;DHT22;11231;50.746;4.272;2023-05-07T01:38:04;16.50;99.90
22130;DHT22;11231;50.746;4.272;2023-05-07T01:40:31;16.40;99.90
22130;DHT22;11231;50.746;4.272;2023-05-07T01:42:57;16.20;99.90
22130;DHT22;11231;50.746;4.272;2023-05-07T01:45:25;16.10;99.90
22130;DHT22;11231;50.746;4.272;2023-05-07T01:47:51;16.10;99.90
22130;DHT22;11231;50.746;4.272;2023-05-07T01:50:19;16.10;99.90
22130;DHT22;11231;50.746;4.272;2023-05-07T01:52:47;16.10;99.90
22130;DHT22;11231;50.746;4.272;2023-05-07T01:55:12;16.20;99.90
22130;DHT22;11231;50.746;4.272;2023-05-07T01:57:38;16.30;99.90
22130;DHT22;11231;50.746;4.272;2023-05-07T02:00:05;16.30;99.90
22130;DHT22;11231;50.746;4.272;2023-05-07T02:02:41;16.30;99.90
22130;DHT22;11231;50.746;4.272;2023-05-07T02:05:12;16.40;99.90
22130;DHT22;11231;50.746;4.272;2023-05-07T02:07:41;16.40;99.90
22130;DHT22;11231;50.746;4.272;2023-05-07T02:10:07;16.40;99.90
22130;DHT22;11231;50.746;4.272;2023-05-07T02:12:33;16.40;99.90
22130;DHT22;11231;50.746;4.272;2023-05-07T02:14:59;16.10;99.90
22130;DHT22;11231;50.746;4.272;2023-05-07T02:17:25;16.10;99.90
22130;DHT22;11231;50.746;4.272;2023-05-07T02:19:51;16.00;99.90
22130;DHT22;11231;50.746;4.272;2023-05-07T02:22:18;15.90;99.90
22130;DHT22;11231;50.746;4.272;2023-05-07T02:24:43;15.80;99.90
22130;DHT22;11231;50.746;4.272;2023-05-07T02:27:10;15.70;99.90
22130;DHT22;11231;50.746;4.272;2023-05-07T02:29:36;15.90;99.90
22130;DHT22;11231;50.746;4.272;2023-05-07T02:32:02;16.00;99.90
22130;DHT22;11231;50.746;4.272;2023-05-07T02:34:29;16.10;99.90
22130;DHT22;11231;50.746;4.272;2023-05-07T02:36:55;16.10;99.90
22130;DHT22;11231;50.746;4.272;2023-05-07T02:39:24;16.10;99.90
22130;DHT22;11231;50.746;4.272;2023-05-07T02:41:50;16.20;99.90
22130;DHT22;11231;50.746;4.272;2023-05-07T02:44:16;16.20;99.90
22130;DHT22;11231;50.746;4.272;2023-05-07T02:46:43;16.20;99.90
22130;DHT22;11231;50.746;4.272;2023-05-07T02:49:12;16.10;99.90
22130;DHT22;11231;50.746;4.272;2023-05-07T02:51:37;16.10;99.90
22130;DHT22;11231;50.746;4.272;2023-05-07T02:54:09;16.20;99.90
22130;DHT22;11231;50.746;4.272;2023-05-07T02:56:35;16.20;99.90
22130;DHT22;11231;50.746;4.272;2023-05-07T02:59:00;16.10;99.90
22130;DHT22;11231;50.746;4.272;2023-05-07T03:01:31;16.10;99.90
22130;DHT22;11231;50.746;4.272;2023-05-07T03:04:01;16.10;99.90
22130;DHT22;11231;50.746;4.272;2023-05-07T03:06:27;16.00;99.90
22130;DHT22;11231;50.746;4.272;2023-05-07T03:08:55;16.00;99.90
22130;DHT22;11231;50.746;4.272;2023-05-07T03:11:21;16.00;99.90
22130;DHT22;11231;50.746;4.272;2023-05-07T03:13:47;16.10;99.90
22130;DHT22;11231;50.746;4.272;2023-05-07T03:16:15;16.20;99.90
22130;DHT22;11231;50.746;4.272;2023-05-07T03:18:41;16.20;99.90
22130;DHT22;11231;50.746;4.272;2023-05-07T03:21:06;16.20;99.90
22130;DHT22;11231;50.746;4.272;2023-05-07T03:23:32;16.20;99.90
22130;DHT22;11231;50.746;4.272;2023-05-07T03:25:58;16.20;99.90
22130;DHT22;11231;50.746;4.272;2023-05-07T03:28:23;16.30;99.90
22130;DHT22;11231;50.746;4.272;2023-05-07T03:30:55;16.30;99.90
22130;DHT22;11231;50.746;4.272;2023-05-07T03:33:21;16.30;99.90
22130;DHT22;11231;50.746;4.272;2023-05-07T03:35:48;16.30;99.90
22130;DHT22;11231;50.746;4.272;2023-05-07T03:38:19;16.30;99.90
22130;DHT22;11231;50.746;4.272;2023-05-07T03:40:44;16.30;99.90
22130;DHT22;11231;50.746;4.272;2023-05-07T03:43:10;16.40;99.90
22130;DHT22;11231;50.746;4.272;2023-05-07T03:45:40;16.50;99.90
22130;DHT22;11231;50.746;4.272;2023-05-07T03:48:14;16.40;99.90
22130;DHT22;11231;50.746;4.272;2023-05-07T03:50:40;16.40;99.90
22130;DHT22;11231;50.746;4.272;2023-05-07T03:53:06;16.40;99.90
22130;DHT22;11231;50.746;4.272;2023-05-07T03:55:36;16.40;99.90
22130;DHT22;11231;50.746;4.272;2023-05-07T03:58:02;16.30;99.90
22130;DHT22;11231;50.746;4.272;2023-05-07T04:00:28;16.30;99.90
22130;DHT22;11231;50.746;4.272;2023-05-07T04:02:58;16.30;99.90
22130;DHT22;11231;50.746;4.272;2023-05-07T04:05:28;16.40;99.90
22130;DHT22;11231;50.746;4.272;2023-05-07T04:07:59;16.50;99.90
22130;DHT22;11231;50.746;4.272;2023-05-07T04:10:35;16.50;99.90
22130;DHT22;11231;50.746;4.272;2023-05-07T04:13:06;16.60;99.90
22130;DHT22;11231;50.746;4.272;2023-05-07T04:15:32;16.50;99.90
22130;DHT22;11231;50.746;4.272;2023-05-07T04:17:58;16.40;99.90
22130;DHT22;11231;50.746;4.272;2023-05-07T04:20:25;16.40;99.90
22130;DHT22;11231;50.746;4.272;2023-05-07T04:22:57;16.40;99.90
22130;DHT22;11231;50.746;4.272;2023-05-07T04:25:23;16.40;99.90
22130;DHT22;11231;50.746;4.272;2023-05-07T04:27:53;16.40;99.90
22130;DHT22;11231;50.746;4.272;2023-05-07T04:30:19;16.50;99.90
22130;DHT22;11231;50.746;4.272;2023-05-07T04:32:45;16.50;99.90
22130;DHT22;11231;50.746;4.272;2023-05-07T04:35:11;16.60;99.90
22130;DHT22;11231;50.746;4.272;2023-05-07T04:37:37;16.70;99.90
22130;DHT22;11231;50.746;4.272;2023-05-07T04:40:04;16.80;99.90
22130;DHT22;11231;50.746;4.272;2023-05-07T04:42:31;16.80;99.90
22130;DHT22;11231;50.746;4.272;2023-05-07T04:44:57;16.80;99.90
22130;DHT22;11231;50.746;4.272;2023-05-07T04:47:24;16.80;99.90
22130;DHT22;11231;50.746;4.272;2023-05-07T04:49:50;16.80;99.90
22130;DHT22;11231;50.746;4.272;2023-05-07T04:52:16;16.80;99.90
22130;DHT22;11231;50.746;4.272;2023-05-07T04:54:42;16.90;99.90
22130;DHT22;11231;50.746;4.272;2023-05-07T04:57:08;17.00;99.90
22130;DHT22;11231;50.746;4.272;2023-05-07T04:59:35;17.10;99.90
22130;DHT22;11231;50.746;4.272;2023-05-07T05:02:00;17.20;99.90
22130;DHT22;11231;50.746;4.272;2023-05-07T05:04:27;17.30;99.90
22130;DHT22;11231;50.746;4.272;2023-05-07T05:06:53;17.30;99.90
22130;DHT22;11231;50.746;4.272;2023-05-07T05:09:19;17.40;99.90
22130;DHT22;11231;50.746;4.272;2023-05-07T05:11:45;17.50;99.90
22130;DHT22;11231;50.746;4.272;2023-05-07T05:14:11;17.50;99.90
22130;DHT22;11231;50.746;4.272;2023-05-07T05:16:40;17.60;99.90
22130;DHT22;11231;50.746;4.272;2023-05-07T05:19:06;17.70;99.90
22130;DHT22;11231;50.746;4.272;2023-05-07T05:21:34;17.70;99.90
22130;DHT22;11231;50.746;4.272;2023-05-07T05:24:06;17.70;99.90
22130;DHT22;11231;50.746;4.272;2023-05-07T05:26:32;17.70;99.90
22130;DHT22;11231;50.746;4.272;2023-05-07T05:28:57;17.70;99.90
22130;DHT22;11231;50.746;4.272;2023-05-07T05:31:26;17.70;99.90
22130;DHT22;11231;50.746;4.272;2023-05-07T05:33:51;17.90;99.90
22130;DHT22;11231;50.746;4.272;2023-05-07T05:36:17;18.00;99.90
22130;DHT22;11231;50.746;4.272;2023-05-07T05:38:45;18.00;99.90
22130;DHT22;11231;50.746;4.272;2023-05-07T05:41:12;17.90;99.90
22130;DHT22;11231;50.746;4.272;2023-05-07T05:43:37;17.90;99.90
22130;DHT22;11231;50.746;4.272;2023-05-07T05:46:03;17.90;99.90
22130;DHT22;11231;50.746;4.272;2023-05-07T05:48:30;17.90;99.90
22130;DHT22;11231;50.746;4.272;2023-05-07T05:50:57;17.90;99.90
22130;DHT22;11231;50.746;4.272;2023-05-07T05:53:23;17.90;99.90
22130;DHT22;11231;50.746;4.272;2023-05-07T05:55:49;17.90;99.90
22130;DHT22;11231;50.746;4.272;2023-05-07T05:58:16;17.90;99.90
22130;DHT22;11231;50.746;4.272;2023-05-07T06:00:49;18.00;99.90
22130;DHT22;11231;50.746;4.272;2023-05-07T06:03:18;18.10;99.90
22130;DHT22;11231;50.746;4.272;2023-05-07T06:05:47;18.00;99.90
22130;DHT22;11231;50.746;4.272;2023-05-07T06:08:13;17.90;99.90
22130;DHT22;11231;50.746;4.272;2023-05-07T06:10:39;17.90;99.90
22130;DHT22;11231;50.746;4.272;2023-05-07T06:13:07;17.90;99.90
22130;DHT22;11231;50.746;4.272;2023-05-07T06:15:35;17.90;99.90
22130;DHT22;11231;50.746;4.272;2023-05-07T06:18:06;18.00;99.90
22130;DHT22;11231;50.746;4.272;2023-05-07T06:20:32;18.10;99.90
22130;DHT22;11231;50.746;4.272;2023-05-07T06:23:00;18.10;99.90
22130;DHT22;11231;50.746;4.272;2023-05-07T06:25:27;18.00;99.90
22130;DHT22;11231;50.746;4.272;2023-05-07T06:27:52;18.00;99.90
22130;DHT22;11231;50.746;4.272;2023-05-07T06:30:18;18.10;99.90
22130;DHT22;11231;50.746;4.272;2023-05-07T06:32:45;18.20;99.90
22130;DHT22;11231;50.746;4.272;2023-05-07T06:35:13;18.20;99.90
22130;DHT22;11231;50.746;4.272;2023-05-07T06:37:41;18.30;99.90
22130;DHT22;11231;50.746;4.272;2023-05-07T06:40:12;18.30;99.90
22130;DHT22;11231;50.746;4.272;2023-05-07T06:42:39;18.50;99.90
22130;DHT22;11231;50.746;4.272;2023-05-07T06:45:22;18.50;99.90
22130;DHT22;11231;50.746;4.272;2023-05-07T06:47:49;18.50;99.90
22130;DHT22;11231;50.746;4.272;2023-05-07T06:50:15;18.50;99.90
22130;DHT22;11231;50.746;4.272;2023-05-07T06:52:43;18.40;99.90
22130;DHT22;11231;50.746;4.272;2023-05-07T06:55:09;18.50;99.90
22130;DHT22;11231;50.746;4.272;2023-05-07T06:57:37;18.60;99.90
22130;DHT22;11231;50.746;4.272;2023-05-07T07:00:04;18.60;99.90
22130;DHT22;11231;50.746;4.272;2023-05-07T07:02:39;18.60;99.90
22130;DHT22;11231;50.746;4.272;2023-05-07T07:05:06;18.60;99.90
22130;DHT22;11231;50.746;4.272;2023-05-07T07:07:32;18.60;99.90
22130;DHT22;11231;50.746;4.272;2023-05-07T07:09:58;18.50;99.90
22130;DHT22;11231;50.746;4.272;2023-05-07T07:12:23;18.40;99.90
22130;DHT22;11231;50.746;4.272;2023-05-07T07:14:51;18.40;99.90
22130;DHT22;11231;50.746;4.272;2023-05-07T07:17:17;18.50;99.90
22130;DHT22;11231;50.746;4.272;2023-05-07T07:19:43;18.60;99.90
22130;DHT22;11231;50.746;4.272;2023-05-07T07:22:09;18.50;99.90
22130;DHT22;11231;50.746;4.272;2023-05-07T07:24:35;18.30;99.90
22130;DHT22;11231;50.746;4.272;2023-05-07T07:27:04;18.30;99.90
22130;DHT22;11231;50.746;4.272;2023-05-07T07:29:33;18.10;99.90
22130;DHT22;11231;50.746;4.272;2023-05-07T07:31:58;18.10;99.90
22130;DHT22;11231;50.746;4.272;2023-05-07T07:34:24;18.00;99.90
22130;DHT22;11231;50.746;4.272;2023-05-07T07:36:51;18.20;99.90
22130;DHT22;11231;50.746;4.272;2023-05-07T07:39:18;18.30;99.90
22130;DHT22;11231;50.746;4.272;2023-05-07T07:41:45;18.30;99.90
22130;DHT22;11231;50.746;4.272;2023-05-07T07:44:12;18.20;99.90
22130;DHT22;11231;50.746;4.272;2023-05-07T07:46:39;18.10;99.90
22130;DHT22;11231;50.746;4.272;2023-05-07T07:49:06;18.10;99.90
22130;DHT22;11231;50.746;4.272;2023-05-07T07:51:32;18.10;99.90
22130;DHT22;11231;50.746;4.272;2023-05-07T07:53:59;18.10;99.90
22130;DHT22;11231;50.746;4.272;2023-05-07T07:56:26;18.20;99.90
22130;DHT22;11231;50.746;4.272;2023-05-07T07:58:52;18.40;99.90
22130;DHT22;11231;50.746;4.272;2023-05-07T08:01:18;18.60;99.90
22130;DHT22;11231;50.746;4.272;2023-05-07T08:03:45;18.80;99.90
22130;DHT22;11231;50.746;4.272;2023-05-07T08:06:12;19.00;99.90
22130;DHT22;11231;50.746;4.272;2023-05-07T08:08:39;19.20;99.90
22130;DHT22;11231;50.746;4.272;2023-05-07T08:11:05;19.30;99.90
22130;DHT22;11231;50.746;4.272;2023-05-07T08:13:33;19.30;99.90
22130;DHT22;11231;50.746;4.272;2023-05-07T08:15:59;19.30;99.90
22130;DHT22;11231;50.746;4.272;2023-05-07T08:18:25;19.10;99.90
22130;DHT22;11231;50.746;4.272;2023-05-07T08:20:54;19.10;99.90
22130;DHT22;11231;50.746;4.272;2023-05-07T08:23:22;19.00;99.90
22130;DHT22;11231;50.746;4.272;2023-05-07T08:25:49;18.80;99.90
22130;DHT22;11231;50.746;4.272;2023-05-07T08:28:17;18.60;99.90
22130;DHT22;11231;50.746;4.272;2023-05-07T08:30:42;18.50;99.90
22130;DHT22;11231;50.746;4.272;2023-05-07T08:33:09;18.50;99.90
22130;DHT22;11231;50.746;4.272;2023-05-07T08:35:35;18.50;99.90
22130;DHT22;11231;50.746;4.272;2023-05-07T08:38:01;18.60;99.90
22130;DHT22;11231;50.746;4.272;2023-05-07T08:40:28;18.60;99.90
22130;DHT22;11231;50.746;4.272;2023-05-07T08:42:57;18.70;99.90
22130;DHT22;11231;50.746;4.272;2023-05-07T08:45:30;18.80;99.90
22130;DHT22;11231;50.746;4.272;2023-05-07T08:47:59;18.90;99.90
22130;DHT22;11231;50.746;4.272;2023-05-07T08:50:30;19.00;99.90
22130;DHT22;11231;50.746;4.272;2023-05-07T08:52:57;19.10;99.90
22130;DHT22;11231;50.746;4.272;2023-05-07T08:55:24;19.30;99.90
22130;DHT22;11231;50.746;4.272;2023-05-07T08:57:53;19.40;99.90
22130;DHT22;11231;50.746;4.272;2023-05-07T09:00:22;19.40;99.90
22130;DHT22;11231;50.746;4.272;2023-05-07T09:02:51;19.50;99.90
22130;DHT22;11231;50.746;4.272;2023-05-07T09:05:17;19.50;99.90
22130;DHT22;11231;50.746;4.272;2023-05-07T09:07:47;19.50;99.90
22130;DHT22;11231;50.746;4.272;2023-05-07T09:10:14;19.50;99.90
22130;DHT22;11231;50.746;4.272;2023-05-07T09:12:41;19.70;99.90
22130;DHT22;11231;50.746;4.272;2023-05-07T09:15:11;19.90;99.90
22130;DHT22;11231;50.746;4.272;2023-05-07T09:17:38;20.10;99.90
22130;DHT22;11231;50.746;4.272;2023-05-07T09:20:05;20.00;99.90
22130;DHT22;11231;50.746;4.272;2023-05-07T09:22:38;20.00;99.90
22130;DHT22;11231;50.746;4.272;2023-05-07T09:25:28;20.00;99.90
22130;DHT22;11231;50.746;4.272;2023-05-07T09:28:14;20.00;99.90
22130;DHT22;11231;50.746;4.272;2023-05-07T09:30:40;19.80;99.90
22130;DHT22;11231;50.746;4.272;2023-05-07T09:33:09;19.70;99.90
22130;DHT22;11231;50.746;4.272;2023-05-07T09:35:38;19.40;99.90
22130;DHT22;11231;50.746;4.272;2023-05-07T09:38:09;19.50;99.90
22130;DHT22;11231;50.746;4.272;2023-05-07T09:40:36;19.50;99.90
22130;DHT22;11231;50.746;4.272;2023-05-07T09:43:10;19.60;99.90
22130;DHT22;11231;50.746;4.272;2023-05-07T09:45:49;19.70;99.90
22130;DHT22;11231;50.746;4.272;2023-05-07T09:48:18;19.80;99.90
22130;DHT22;11231;50.746;4.272;2023-05-07T09:50:49;20.00;99.90
22130;DHT22;11231;50.746;4.272;2023-05-07T09:53:20;20.20;99.90
22130;DHT22;11231;50.746;4.272;2023-05-07T09:55:47;20.30;99.90
22130;DHT22;11231;50.746;4.272;2023-05-07T09:58:15;20.50;99.90
22130;DHT22;11231;50.746;4.272;2023-05-07T10:00:44;20.60;99.90
22130;DHT22;11231;50.746;4.272;2023-05-07T10:03:14;20.70;99.90
22130;DHT22;11231;50.746;4.272;2023-05-07T10:05:50;20.70;99.90
22130;DHT22;11231;50.746;4.272;2023-05-07T10:08:18;20.80;99.90
22130;DHT22;11231;50.746;4.272;2023-05-07T10:10:47;20.90;99.90
22130;DHT22;11231;50.746;4.272;2023-05-07T10:13:21;21.00;99.90
22130;DHT22;11231;50.746;4.272;2023-05-07T10:15:50;20.90;99.90
22130;DHT22;11231;50.746;4.272;2023-05-07T10:18:18;20.80;99.90
22130;DHT22;11231;50.746;4.272;2023-05-07T10:20:51;20.70;99.90
22130;DHT22;11231;50.746;4.272;2023-05-07T10:23:23;20.70;99.90
22130;DHT22;11231;50.746;4.272;2023-05-07T10:25:54;20.70;99.90
22130;DHT22;11231;50.746;4.272;2023-05-07T10:28:23;20.80;99.90
22130;DHT22;11231;50.746;4.272;2023-05-07T10:33:25;20.80;99.90
22130;DHT22;11231;50.746;4.272;2023-05-07T10:35:57;20.80;99.90
22130;DHT22;11231;50.746;4.272;2023-05-07T10:38:25;20.80;99.90
22130;DHT22;11231;50.746;4.272;2023-05-07T10:40:51;20.80;99.90
22130;DHT22;11231;50.746;4.272;2023-05-07T10:43:17;20.80;99.90
22130;DHT22;11231;50.746;4.272;2023-05-07T10:46:20;20.80;99.90
22130;DHT22;11231;50.746;4.272;2023-05-07T10:54:38;21.20;99.90
22130;DHT22;11231;50.746;4.272;2023-05-07T10:57:38;21.30;99.90
22130;DHT22;11231;50.746;4.272;2023-05-07T11:05:32;21.60;99.90
22130;DHT22;11231;50.746;4.272;2023-05-07T11:08:12;21.50;99.90
22130;DHT22;11231;50.746;4.272;2023-05-07T11:10:55;21.50;99.90
22130;DHT22;11231;50.746;4.272;2023-05-07T11:13:44;21.50;99.90
22130;DHT22;11231;50.746;4.272;2023-05-07T11:16:21;21.50;99.90
22130;DHT22;11231;50.746;4.272;2023-05-07T11:18:54;21.30;99.90
22130;DHT22;11231;50.746;4.272;2023-05-07T11:21:41;21.30;99.90
22130;DHT22;11231;50.746;4.272;2023-05-07T11:24:20;21.40;99.90
22130;DHT22;11231;50.746;4.272;2023-05-07T11:27:10;21.50;99.90
22130;DHT22;11231;50.746;4.272;2023-05-07T11:29:36;21.50;99.90
22130;DHT22;11231;50.746;4.272;2023-05-07T11:32:07;21.70;99.90
22130;DHT22;11231;50.746;4.272;2023-05-07T11:34:39;21.90;99.90
22130;DHT22;11231;50.746;4.272;2023-05-07T11:37:05;22.20;99.90
22130;DHT22;11231;50.746;4.272;2023-05-07T11:39:43;22.40;99.90
22130;DHT22;11231;50.746;4.272;2023-05-07T11:42:29;22.80;99.90
22130;DHT22;11231;50.746;4.272;2023-05-07T11:44:56;23.00;99.90
22130;DHT22;11231;50.746;4.272;2023-05-07T11:47:32;23.10;99.90
22130;DHT22;11231;50.746;4.272;2023-05-07T11:50:03;23.20;99.90
22130;DHT22;11231;50.746;4.272;2023-05-07T11:52:30;22.90;99.90
22130;DHT22;11231;50.746;4.272;2023-05-07T11:54:57;23.00;99.90
22130;DHT22;11231;50.746;4.272;2023-05-07T11:57:24;23.10;99.90
22130;DHT22;11231;50.746;4.272;2023-05-07T12:02:37;23.00;99.90
22130;DHT22;11231;50.746;4.272;2023-05-07T12:05:04;23.10;99.90
22130;DHT22;11231;50.746;4.272;2023-05-07T12:07:36;23.30;99.90
22130;DHT22;11231;50.746;4.272;2023-05-07T12:10:11;23.40;99.90
22130;DHT22;11231;50.746;4.272;2023-05-07T12:12:46;23.10;99.90
22130;DHT22;11231;50.746;4.272;2023-05-07T12:15:15;23.20;99.90
22130;DHT22;11231;50.746;4.272;2023-05-07T12:17:41;23.40;99.90
22130;DHT22;11231;50.746;4.272;2023-05-07T12:20:13;23.50;99.90
22130;DHT22;11231;50.746;4.272;2023-05-07T12:22:40;23.40;99.90
22130;DHT22;11231;50.746;4.272;2023-05-07T12:25:07;23.30;99.90
22130;DHT22;11231;50.746;4.272;2023-05-07T12:27:37;23.40;99.90
22130;DHT22;11231;50.746;4.272;2023-05-07T12:30:03;23.50;99.90
22130;DHT22;11231;50.746;4.272;2023-05-07T12:32:29;23.60;99.90
22130;DHT22;11231;50.746;4.272;2023-05-07T12:34:55;23.70;99.90
22130;DHT22;11231;50.746;4.272;2023-05-07T12:37:24;23.70;99.90
22130;DHT22;11231;50.746;4.272;2023-05-07T12:40:10;23.80;99.90
22130;DHT22;11231;50.746;4.272;2023-05-07T12:42:37;23.70;99.90
22130;DHT22;11231;50.746;4.272;2023-05-07T12:45:36;23.60;99.90
22130;DHT22;11231;50.746;4.272;2023-05-07T12:48:02;23.60;99.90
22130;DHT22;11231;50.746;4.272;2023-05-07T12:50:32;23.60;99.90
22130;DHT22;11231;50.746;4.272;2023-05-07T12:53:05;23.70;99.90
22130;DHT22;11231;50.746;4.272;2023-05-07T12:55:32;23.60;99.90
22130;DHT22;11231;50.746;4.272;2023-05-07T12:58:05;23.50;99.90
22130;DHT22;11231;50.746;4.272;2023-05-07T13:00:36;23.40;99.90
22130;DHT22;11231;50.746;4.272;2023-05-07T13:03:05;23.40;99.90
22130;DHT22;11231;50.746;4.272;2023-05-07T13:05:32;23.50;99.90
22130;DHT22;11231;50.746;4.272;2023-05-07T13:07:58;23.50;99.90
22130;DHT22;11231;50.746;4.272;2023-05-07T13:10:24;23.50;99.90
22130;DHT22;11231;50.746;4.272;2023-05-07T13:12:51;23.40;99.90
22130;DHT22;11231;50.746;4.272;2023-05-07T13:15:17;23.20;99.90
22130;DHT22;11231;50.746;4.272;2023-05-07T13:17:43;23.10;99.90
22130;DHT22;11231;50.746;4.272;2023-05-07T13:20:10;23.00;99.90
22130;DHT22;11231;50.746;4.272;2023-05-07T13:22:40;23.00;99.90
22130;DHT22;11231;50.746;4.272;2023-05-07T13:25:06;23.10;99.90
22130;DHT22;11231;50.746;4.272;2023-05-07T13:27:32;23.10;99.90
22130;DHT22;11231;50.746;4.272;2023-05-07T13:30:01;23.20;99.90
22130;DHT22;11231;50.746;4.272;2023-05-07T13:32:26;23.20;99.90
22130;DHT22;11231;50.746;4.272;2023-05-07T13:34:52;23.20;99.90
22130;DHT22;11231;50.746;4.272;2023-05-07T13:37:18;23.30;99.90
22130;DHT22;11231;50.746;4.272;2023-05-07T13:39:44;23.40;99.90
22130;DHT22;11231;50.746;4.272;2023-05-07T13:42:10;23.40;99.90
22130;DHT22;11231;50.746;4.272;2023-05-07T13:44:36;23.50;99.90
22130;DHT22;11231;50.746;4.272;2023-05-07T13:47:07;23.50;99.90
22130;DHT22;11231;50.746;4.272;2023-05-07T13:49:33;23.40;99.90
22130;DHT22;11231;50.746;4.272;2023-05-07T13:51:59;23.20;99.90
22130;DHT22;11231;50.746;4.272;2023-05-07T13:54:25;23.10;99.90
22130;DHT22;11231;50.746;4.272;2023-05-07T13:56:50;23.20;99.90
22130;DHT22;11231;50.746;4.272;2023-05-07T13:59:16;23.10;99.90
22130;DHT22;11231;50.746;4.272;2023-05-07T14:01:42;23.10;99.90
22130;DHT22;11231;50.746;4.272;2023-05-07T14:04:08;23.10;99.90
22130;DHT22;11231;50.746;4.272;2023-05-07T14:06:34;23.10;99.90
22130;DHT22;11231;50.746;4.272;2023-05-07T14:09:00;23.10;99.90
22130;DHT22;11231;50.746;4.272;2023-05-07T14:11:25;23.10;99.90
22130;DHT22;11231;50.746;4.272;2023-05-07T14:13:51;22.90;99.90
22130;DHT22;11231;50.746;4.272;2023-05-07T14:16:17;23.00;99.90
22130;DHT22;11231;50.746;4.272;2023-05-07T14:18:42;22.90;99.90
22130;DHT22;11231;50.746;4.272;2023-05-07T14:21:08;22.70;99.90
22130;DHT22;11231;50.746;4.272;2023-05-07T14:23:35;22.70;99.90
22130;DHT22;11231;50.746;4.272;2023-05-07T14:26:01;22.60;99.90
22130;DHT22;11231;50.746;4.272;2023-05-07T14:28:27;22.60;99.90
22130;DHT22;11231;50.746;4.272;2023-05-07T14:30:52;22.70;99.90
22130;DHT22;11231;50.746;4.272;2023-05-07T14:33:18;22.60;99.90
22130;DHT22;11231;50.746;4.272;2023-05-07T14:35:44;22.60;99.90
22130;DHT22;11231;50.746;4.272;2023-05-07T14:38:14;22.60;99.90
22130;DHT22;11231;50.746;4.272;2023-05-07T14:40:40;22.30;99.90
22130;DHT22;11231;50.746;4.272;2023-05-07T14:43:06;22.20;99.90
22130;DHT22;11231;50.746;4.272;2023-05-07T14:45:32;22.00;99.90
22130;DHT22;11231;50.746;4.272;2023-05-07T14:47:58;21.80;99.90
22130;DHT22;11231;50.746;4.272;2023-05-07T14:50:23;21.60;99.90
22130;DHT22;11231;50.746;4.272;2023-05-07T14:52:49;21.60;99.90
22130;DHT22;11231;50.746;4.272;2023-05-07T14:55:15;21.70;99.90
22130;DHT22;11231;50.746;4.272;2023-05-07T14:57:41;21.50;99.90
22130;DHT22;11231;50.746;4.272;2023-05-07T15:00:07;21.30;99.90
22130;DHT22;11231;50.746;4.272;2023-05-07T15:02:34;21.40;99.90
22130;DHT22;11231;50.746;4.272;2023-05-07T15:05:00;21.30;99.90
22130;DHT22;11231;50.746;4.272;2023-05-07T15:07:25;21.40;99.90
22130;DHT22;11231;50.746;4.272;2023-05-07T15:09:51;21.30;99.90
22130;DHT22;11231;50.746;4.272;2023-05-07T15:12:17;21.20;99.90
22130;DHT22;11231;50.746;4.272;2023-05-07T15:14:42;21.30;99.90
22130;DHT22;11231;50.746;4.272;2023-05-07T15:17:08;21.40;99.90
22130;DHT22;11231;50.746;4.272;2023-05-07T15:19:34;21.40;99.90
22130;DHT22;11231;50.746;4.272;2023-05-07T15:22:01;21.40;99.90
22130;DHT22;11231;50.746;4.272;2023-05-07T15:24:28;21.50;99.90
22130;DHT22;11231;50.746;4.272;2023-05-07T15:26:54;21.30;99.90
22130;DHT22;11231;50.746;4.272;2023-05-07T15:29:20;21.10;99.90
22130;DHT22;11231;50.746;4.272;2023-05-07T15:31:47;20.90;99.90
22130;DHT22;11231;50.746;4.272;2023-05-07T15:34:13;21.00;99.90
22130;DHT22;11231;50.746;4.272;2023-05-07T15:36:40;21.00;99.90
22130;DHT22;11231;50.746;4.272;2023-05-07T15:39:06;21.10;99.90
22130;DHT22;11231;50.746;4.272;2023-05-07T15:41:32;21.20;99.90
22130;DHT22;11231;50.746;4.272;2023-05-07T15:43:58;21.10;99.90
22130;DHT22;11231;50.746;4.272;2023-05-07T15:46:25;21.10;99.90
22130;DHT22;11231;50.746;4.272;2023-05-07T15:48:51;21.10;99.90
22130;DHT22;11231;50.746;4.272;2023-05-07T15:51:17;20.90;99.90